Time;durP1;ratioP1;P1;durP2;ratioP2;P2;SDS_P1;SDS_P2;PMS_P1;PMS_P2;Temp;Humidity;BMP_temperature;BMP_pressure;BME280_temperature;BME280_humidity;BME280_pressure;Samples;Min_cycle;Max_cycle;Signal;HPM_P1;HPM_P2
2023/09/24 00:00:34;;;;;;;9.90;6.00;;;;;;;20.76;54.62;100789.66;108077;1287;22010;-58
2023/09/24 00:03:00;;;;;;;8.40;7.50;;;;;;;20.74;54.65;100790.14;108119;1283;21989;-58
2023/09/24 00:05:25;;;;;;;8.20;7.00;;;;;;;20.75;54.70;100794.16;108114;1279;21987;-58
2023/09/24 00:07:51;;;;;;;7.90;6.20;;;;;;;20.77;54.99;100795.34;108148;1276;21992;-57
2023/09/24 00:10:16;;;;;;;7.00;5.80;;;;;;;20.77;55.12;100797.13;108097;1287;22006;-67
2023/09/24 00:12:42;;;;;;;6.80;5.90;;;;;;;20.74;55.29;100796.71;108089;1286;21993;-59
2023/09/24 00:15:09;;;;;;;7.10;6.10;;;;;;;20.74;55.38;100794.92;107869;1288;21992;-59
2023/09/24 00:17:34;;;;;;;6.70;6.00;;;;;;;20.77;55.51;100792.48;108046;1276;21987;-69
2023/09/24 00:20:00;;;;;;;8.00;6.40;;;;;;;20.79;55.54;100790.25;108004;1279;21988;-58
2023/09/24 00:22:26;;;;;;;7.60;6.80;;;;;;;20.82;55.63;100790.13;108055;1288;22000;-70
2023/09/24 00:24:51;;;;;;;8.70;6.70;;;;;;;20.83;55.63;100789.00;108023;1288;21995;-58
2023/09/24 00:27:17;;;;;;;9.30;7.60;;;;;;;20.84;55.73;100785.94;108003;1288;21980;-70
2023/09/24 00:29:42;;;;;;;8.30;6.90;;;;;;;20.85;55.72;100786.56;108011;1279;21993;-58
2023/09/24 00:32:08;;;;;;;6.20;5.60;;;;;;;20.87;55.86;100785.77;107999;1283;21988;-58
2023/09/24 00:34:34;;;;;;;5.80;4.30;;;;;;;20.87;55.70;100786.87;107986;1283;21998;-58
2023/09/24 00:37:00;;;;;;;5.40;4.70;;;;;;;20.87;55.70;100787.21;107978;1283;22000;-58
2023/09/24 00:39:25;;;;;;;6.50;4.70;;;;;;;20.88;55.69;100783.77;108028;1283;21996;-57
2023/09/24 00:41:51;;;;;;;6.30;5.40;;;;;;;20.89;55.55;100779.80;107994;1286;21999;-58
2023/09/24 00:44:17;;;;;;;8.20;6.60;;;;;;;20.87;55.53;100778.63;108041;1283;22014;-69
2023/09/24 00:46:44;;;;;;;7.20;6.40;;;;;;;20.90;55.52;100780.63;108031;1283;22062;-57
2023/09/24 00:49:13;;;;;;;8.20;6.60;;;;;;;20.91;55.61;100778.80;108011;1286;22000;-58
2023/09/24 00:51:39;;;;;;;7.50;6.70;;;;;;;20.94;55.64;100774.17;108001;1286;22029;-68
2023/09/24 00:54:04;;;;;;;9.00;6.80;;;;;;;21.02;55.80;100772.38;107861;1288;21991;-69
2023/09/24 00:56:30;;;;;;;8.20;7.10;;;;;;;21.07;55.99;100774.07;107988;1282;21992;-57
2023/09/24 00:58:56;;;;;;;11.30;9.20;;;;;;;21.15;56.23;100778.73;107690;1280;21998;-69
2023/09/24 01:01:24;;;;;;;13.30;10.50;;;;;;;21.20;56.42;100780.75;107999;1279;21993;-57
2023/09/24 01:03:51;;;;;;;12.60;10.60;;;;;;;21.26;56.64;100780.48;108027;1286;21992;-58
2023/09/24 01:06:19;;;;;;;13.20;11.00;;;;;;;21.34;56.60;100782.40;108180;1286;22457;-68
2023/09/24 01:08:45;;;;;;;15.30;11.40;;;;;;;21.40;56.84;100778.00;108050;1283;21991;-68
2023/09/24 01:11:11;;;;;;;13.30;10.80;;;;;;;21.47;56.80;100774.74;108021;1287;22000;-58
2023/09/24 01:13:44;;;;;;;12.20;10.30;;;;;;;21.55;56.80;100773.65;108016;1288;21988;-58
2023/09/24 01:16:10;;;;;;;15.30;11.70;;;;;;;21.60;56.94;100773.38;108040;1286;21971;-68
2023/09/24 01:18:37;;;;;;;16.10;11.90;;;;;;;21.64;56.84;100773.05;108017;1287;21998;-57
2023/09/24 01:21:13;;;;;;;16.00;11.90;;;;;;;21.62;56.73;100770.27;107984;1288;21990;-68
2023/09/24 01:23:40;;;;;;;14.50;11.20;;;;;;;21.61;56.85;100774.97;107933;1288;22002;-58
2023/09/24 01:26:07;;;;;;;13.20;10.90;;;;;;;21.61;56.89;100776.21;109525;1277;21989;-68
2023/09/24 01:28:33;;;;;;;14.10;11.50;;;;;;;21.63;57.22;100774.30;108025;1288;22455;-68
2023/09/24 01:30:59;;;;;;;14.70;11.90;;;;;;;21.65;57.52;100772.45;108064;1284;21997;-67
2023/09/24 01:33:25;;;;;;;15.90;13.00;;;;;;;21.67;57.38;100774.12;108050;1288;22004;-68
2023/09/24 01:35:50;;;;;;;17.00;12.50;;;;;;;21.69;57.36;100775.63;107994;1283;22000;-68
2023/09/24 01:38:16;;;;;;;15.40;13.00;;;;;;;21.68;57.38;100773.32;108051;1286;22003;-67
2023/09/24 01:40:41;;;;;;;16.00;13.70;;;;;;;21.69;57.59;100776.13;108005;1283;22008;-68
2023/09/24 01:43:13;;;;;;;15.00;11.80;;;;;;;21.70;57.59;100778.25;107995;1288;21996;-68
2023/09/24 01:45:39;;;;;;;14.80;11.10;;;;;;;21.63;58.01;100783.08;108059;1286;22019;-67
2023/09/24 01:48:09;;;;;;;13.60;10.70;;;;;;;21.65;58.04;100780.14;108000;1280;21990;-57
2023/09/24 01:50:36;;;;;;;14.10;11.20;;;;;;;21.68;57.94;100780.28;107980;1283;22030;-67
2023/09/24 01:53:03;;;;;;;13.80;11.60;;;;;;;21.69;58.06;100778.63;108027;1284;21992;-67
2023/09/24 01:55:29;;;;;;;15.40;12.20;;;;;;;21.72;58.17;100774.77;108007;1288;21991;-58
2023/09/24 01:57:55;;;;;;;15.90;11.20;;;;;;;21.75;58.25;100769.98;108060;1288;21993;-67
2023/09/24 02:00:23;;;;;;;16.90;11.60;;;;;;;21.76;58.40;100772.23;108021;1283;21988;-66
2023/09/24 02:02:50;;;;;;;13.60;11.10;;;;;;;21.75;58.47;100769.41;108029;1288;21989;-58
2023/09/24 02:05:17;;;;;;;12.70;11.10;;;;;;;21.78;58.63;100765.34;108020;1288;22110;-58
2023/09/24 02:07:42;;;;;;;12.50;10.50;;;;;;;21.82;58.73;100765.63;107977;1283;21990;-58
2023/09/24 02:10:08;;;;;;;13.40;10.30;;;;;;;21.87;58.91;100763.23;107994;1288;21991;-66
2023/09/24 02:12:35;;;;;;;12.70;10.10;;;;;;;21.92;58.94;100762.10;107992;1288;21987;-59
2023/09/24 02:15:04;;;;;;;14.50;9.40;;;;;;;21.95;59.08;100764.63;108043;1277;21992;-67
2023/09/24 02:17:30;;;;;;;10.80;9.00;;;;;;;21.98;59.20;100766.02;108115;1287;22110;-58
2023/09/24 02:19:55;;;;;;;11.80;9.10;;;;;;;22.03;59.35;100767.79;108133;1287;21992;-58
2023/09/24 02:22:22;;;;;;;11.30;9.70;;;;;;;22.06;59.17;100766.71;108083;1285;23200;-68
2023/09/24 02:24:48;;;;;;;12.00;9.40;;;;;;;22.08;59.25;100766.92;108066;1288;21998;-68
2023/09/24 02:27:13;;;;;;;10.40;8.60;;;;;;;22.11;59.09;100762.69;107843;1279;21986;-60
2023/09/24 02:29:39;;;;;;;11.20;9.00;;;;;;;22.12;59.06;100760.45;108103;1287;22004;-59
2023/09/24 02:32:06;;;;;;;10.20;8.60;;;;;;;22.14;58.99;100759.11;107847;1288;22004;-67
2023/09/24 02:34:31;;;;;;;11.00;9.00;;;;;;;22.14;58.99;100758.55;108116;1288;21996;-59
2023/09/24 02:36:57;;;;;;;11.80;9.30;;;;;;;22.15;58.86;100760.66;108083;1288;22000;-67
2023/09/24 02:39:23;;;;;;;22.00;10.20;;;;;;;22.16;58.90;100762.42;108196;1287;21990;-67
2023/09/24 02:41:49;;;;;;;11.40;9.00;;;;;;;22.14;58.95;100755.17;108132;1277;21993;-67
2023/09/24 02:44:17;;;;;;;12.10;9.60;;;;;;;22.13;58.99;100753.06;108088;1288;21990;-64
2023/09/24 02:46:44;;;;;;;14.90;9.80;;;;;;;22.15;58.85;100755.50;108114;1281;23132;-57
2023/09/24 02:49:10;;;;;;;12.30;9.10;;;;;;;22.16;58.86;100759.54;108139;1280;21982;-57
2023/09/24 02:51:35;;;;;;;11.30;8.60;;;;;;;22.17;58.89;100760.23;108124;1283;22083;-59
2023/09/24 02:54:01;;;;;;;9.90;8.30;;;;;;;22.17;58.65;100763.63;108084;1277;22617;-66
2023/09/24 02:56:28;;;;;;;11.70;8.10;;;;;;;22.14;58.58;100767.86;108104;1283;21994;-66
2023/09/24 02:58:54;;;;;;;12.30;7.60;;;;;;;22.10;58.37;100767.89;108070;1287;21999;-66
2023/09/24 03:01:20;;;;;;;13.70;7.70;;;;;;;22.04;58.22;100771.97;108072;1280;23065;-66
2023/09/24 03:03:45;;;;;;;9.00;6.60;;;;;;;21.94;58.16;100775.20;108092;1287;22043;-58
2023/09/24 03:06:12;;;;;;;9.20;6.80;;;;;;;21.85;58.16;100777.29;108074;1280;21983;-61
2023/09/24 03:08:38;;;;;;;9.10;6.90;;;;;;;21.79;58.06;100777.23;108154;1276;21990;-58
2023/09/24 03:11:14;;;;;;;7.90;6.70;;;;;;;21.73;58.00;100773.44;108131;1277;21988;-67
2023/09/24 03:13:40;;;;;;;13.30;7.50;;;;;;;21.67;57.83;100771.77;108105;1286;21992;-66
2023/09/24 03:16:07;;;;;;;7.80;6.50;;;;;;;21.63;57.87;100770.76;108150;1283;21989;-66
2023/09/24 03:18:33;;;;;;;8.30;6.70;;;;;;;21.59;57.85;100775.56;108071;1283;22028;-65
2023/09/24 03:20:58;;;;;;;7.50;6.20;;;;;;;21.55;57.80;100783.10;108090;1280;22059;-66
2023/09/24 03:23:24;;;;;;;7.70;5.90;;;;;;;21.51;57.86;100784.90;108051;1288;21990;-59
2023/09/24 03:25:50;;;;;;;8.40;6.50;;;;;;;21.47;57.83;100783.13;108068;1280;21993;-60
2023/09/24 03:28:16;;;;;;;7.20;6.00;;;;;;;21.44;57.92;100781.86;108059;1283;22002;-66
2023/09/24 03:30:41;;;;;;;6.90;5.70;;;;;;;21.41;57.74;100787.38;108074;1287;22001;-59
2023/09/24 03:33:07;;;;;;;7.20;5.80;;;;;;;21.38;57.84;100789.87;108108;1284;21992;-65
2023/09/24 03:35:33;;;;;;;7.60;5.70;;;;;;;21.35;57.71;100792.67;108158;1286;21990;-58
2023/09/24 03:37:59;;;;;;;7.30;5.00;;;;;;;21.33;57.63;100794.73;108142;1280;22028;-65
2023/09/24 03:40:25;;;;;;;10.70;5.80;;;;;;;21.31;57.70;100794.15;108100;1287;22455;-59
2023/09/24 03:42:51;;;;;;;10.60;4.90;;;;;;;21.29;57.78;100797.09;108137;1280;21998;-65
2023/09/24 03:45:18;;;;;;;14.00;5.50;;;;;;;21.26;57.82;100801.02;108105;1280;22022;-60
2023/09/24 03:47:45;;;;;;;8.00;4.50;;;;;;;21.22;57.86;100800.09;108094;1287;21998;-59
2023/09/24 03:50:17;;;;;;;8.10;4.70;;;;;;;21.20;57.92;100802.36;108126;1283;22001;-66
2023/09/24 03:52:43;;;;;;;8.70;5.00;;;;;;;21.17;57.85;100801.98;108091;1283;21996;-65
2023/09/24 03:55:09;;;;;;;7.70;5.10;;;;;;;21.17;57.82;100805.75;108157;1288;22000;-64
2023/09/24 03:57:34;;;;;;;9.90;5.30;;;;;;;21.16;57.78;100811.14;108137;1288;22024;-59
2023/09/24 04:00:00;;;;;;;8.00;5.20;;;;;;;21.16;58.00;100819.89;108108;1283;21998;-59
2023/09/24 04:02:28;;;;;;;7.60;4.40;;;;;;;21.16;58.01;100828.27;108126;1288;23767;-59
2023/09/24 04:04:54;;;;;;;6.20;5.00;;;;;;;21.15;58.10;100831.36;108167;1288;21986;-65
2023/09/24 04:07:20;;;;;;;7.20;5.10;;;;;;;21.14;58.18;100831.39;107887;1288;21987;-65
2023/09/24 04:09:46;;;;;;;6.80;5.20;;;;;;;21.14;58.32;100835.84;108134;1276;21990;-59
2023/09/24 04:12:13;;;;;;;7.10;4.70;;;;;;;21.14;58.41;100838.34;108167;1286;21998;-59
2023/09/24 04:14:39;;;;;;;5.90;4.40;;;;;;;21.14;58.42;100843.54;108114;1283;21995;-58
2023/09/24 04:17:08;;;;;;;6.10;4.90;;;;;;;21.13;58.43;100840.02;108171;1283;22015;-59
2023/09/24 04:19:34;;;;;;;15.80;6.10;;;;;;;21.10;58.49;100834.23;108113;1277;21990;-65
2023/09/24 04:21:59;;;;;;;8.20;5.90;;;;;;;21.10;58.54;100836.58;108128;1277;21992;-59
2023/09/24 04:24:25;;;;;;;8.50;5.10;;;;;;;21.08;58.58;100842.36;108150;1276;22748;-58
2023/09/24 04:26:52;;;;;;;9.70;6.10;;;;;;;21.07;58.73;100847.42;108193;1283;22006;-65
2023/09/24 04:29:18;;;;;;;6.80;5.30;;;;;;;21.08;58.91;100848.43;108172;1279;21966;-59
2023/09/24 04:31:44;;;;;;;7.50;5.70;;;;;;;21.08;59.19;100847.19;108132;1283;22313;-66
2023/09/24 04:34:12;;;;;;;7.60;5.60;;;;;;;21.07;59.32;100842.24;108122;1286;21991;-58
2023/09/24 04:36:41;;;;;;;7.20;5.50;;;;;;;21.10;59.50;100837.83;108185;1283;21992;-59
2023/09/24 04:39:10;;;;;;;8.40;5.00;;;;;;;21.15;59.70;100836.52;108153;1283;21956;-59
2023/09/24 04:41:39;;;;;;;14.80;6.00;;;;;;;21.19;59.97;100832.90;108097;1288;21979;-58
2023/09/24 04:44:07;;;;;;;9.10;5.40;;;;;;;21.24;60.20;100832.48;108144;1279;23062;-58
2023/09/24 04:46:32;;;;;;;8.40;6.00;;;;;;;21.29;60.34;100831.20;108143;1288;21999;-66
2023/09/24 04:48:58;;;;;;;7.80;5.90;;;;;;;21.33;60.32;100832.25;108102;1288;21960;-67
2023/09/24 04:51:23;;;;;;;7.40;5.00;;;;;;;21.37;60.22;100834.70;108137;1277;21998;-58
2023/09/24 04:53:49;;;;;;;7.70;4.60;;;;;;;21.41;60.40;100833.61;108135;1286;21990;-67
2023/09/24 04:56:15;;;;;;;7.10;5.10;;;;;;;21.47;60.93;100841.73;108111;1288;21988;-66
2023/09/24 04:58:40;;;;;;;10.80;5.10;;;;;;;21.54;61.10;100846.55;108131;1288;21992;-67
2023/09/24 05:01:07;;;;;;;8.50;5.20;;;;;;;21.61;61.09;100840.86;108120;1287;22109;-67
2023/09/24 05:03:34;;;;;;;17.20;6.00;;;;;;;21.69;61.58;100838.27;108145;1283;21997;-67
2023/09/24 05:06:00;;;;;;;8.20;6.00;;;;;;;21.79;61.59;100837.42;108153;1277;22001;-67
2023/09/24 05:08:26;;;;;;;7.50;5.60;;;;;;;21.89;61.76;100833.14;108127;1283;21987;-58
2023/09/24 05:10:52;;;;;;;6.10;4.60;;;;;;;22.02;61.71;100832.14;108114;1286;21996;-65
2023/09/24 05:13:17;;;;;;;8.00;4.80;;;;;;;22.13;61.73;100834.23;108171;1277;21990;-58
2023/09/24 05:15:53;;;;;;;8.40;5.20;;;;;;;22.23;61.54;100832.81;108131;1287;21999;-67
2023/09/24 05:18:22;;;;;;;7.00;5.40;;;;;;;22.32;61.64;100836.04;108169;1278;22002;-59
2023/09/24 05:20:48;;;;;;;8.50;5.00;;;;;;;22.44;62.04;100838.85;108180;1276;21952;-67
2023/09/24 05:23:14;;;;;;;8.10;5.80;;;;;;;22.54;62.26;100839.90;108108;1283;21990;-67
2023/09/24 05:25:40;;;;;;;9.90;5.30;;;;;;;22.63;62.02;100843.87;107849;1284;22004;-59
2023/09/24 05:28:06;;;;;;;7.90;4.80;;;;;;;22.73;62.19;100845.63;108129;1283;21986;-66
2023/09/24 05:30:32;;;;;;;11.20;5.70;;;;;;;22.89;62.65;100845.29;108164;1277;21994;-58
2023/09/24 05:32:57;;;;;;;11.20;5.30;;;;;;;23.07;62.82;100842.84;108148;1288;21992;-61
2023/09/24 05:35:23;;;;;;;8.00;5.30;;;;;;;23.26;63.00;100843.03;108143;1277;22000;-58
2023/09/24 05:37:48;;;;;;;9.40;5.00;;;;;;;23.45;62.77;100841.56;108100;1277;21988;-66
2023/09/24 05:40:14;;;;;;;12.90;5.70;;;;;;;23.64;62.55;100841.36;108114;1288;21992;-59
2023/09/24 05:42:41;;;;;;;11.20;5.60;;;;;;;23.81;62.34;100840.66;108136;1288;21990;-67
2023/09/24 05:45:07;;;;;;;10.00;5.30;;;;;;;23.97;62.10;100839.73;108159;1286;22165;-64
2023/09/24 05:47:33;;;;;;;8.40;4.90;;;;;;;24.13;61.69;100839.16;108102;1288;21998;-68
2023/09/24 05:49:59;;;;;;;14.60;5.30;;;;;;;24.27;61.72;100843.65;108100;1283;21965;-60
2023/09/24 05:52:25;;;;;;;13.00;5.10;;;;;;;24.41;61.28;100845.48;108147;1283;21995;-59
2023/09/24 05:54:51;;;;;;;10.70;5.20;;;;;;;24.55;61.41;100843.71;108103;1277;21990;-59
2023/09/24 05:57:17;;;;;;;11.00;5.00;;;;;;;24.70;61.53;100842.91;108091;1283;21999;-68
2023/09/24 05:59:43;;;;;;;7.80;4.90;;;;;;;24.87;61.52;100841.48;108095;1280;21996;-59
2023/09/24 06:02:09;;;;;;;7.70;4.30;;;;;;;25.05;61.27;100842.86;108111;1287;21996;-59
2023/09/24 06:04:34;;;;;;;6.80;4.90;;;;;;;25.22;61.03;100848.17;108094;1288;21987;-59
2023/09/24 06:07:00;;;;;;;6.20;4.50;;;;;;;25.39;60.93;100852.61;108110;1283;21988;-58
2023/09/24 06:09:30;;;;;;;12.30;5.20;;;;;;;25.56;60.75;100849.70;108096;1279;21989;-59
2023/09/24 06:11:55;;;;;;;9.30;5.10;;;;;;;25.75;60.49;100850.96;108117;1287;21990;-68
2023/09/24 06:14:21;;;;;;;10.60;4.40;;;;;;;25.93;60.28;100852.62;108122;1283;21996;-60
2023/09/24 06:16:47;;;;;;;8.00;5.00;;;;;;;26.13;59.88;100854.27;108088;1288;23646;-68
2023/09/24 06:19:13;;;;;;;8.80;5.00;;;;;;;26.31;59.58;100856.41;108092;1288;21991;-68
2023/09/24 06:21:38;;;;;;;9.50;5.00;;;;;;;26.48;58.89;100864.73;108101;1277;21992;-60
2023/09/24 06:24:04;;;;;;;7.10;4.50;;;;;;;26.62;58.62;100868.30;108119;1278;22002;-59
2023/09/24 06:26:30;;;;;;;11.70;5.40;;;;;;;26.78;58.69;100875.42;108093;1280;21994;-60
2023/09/24 06:28:56;;;;;;;7.60;4.40;;;;;;;26.98;58.52;100875.62;108142;1283;21990;-59
2023/09/24 06:31:22;;;;;;;8.20;5.20;;;;;;;27.18;58.49;100874.16;108137;1283;22007;-68
2023/09/24 06:33:48;;;;;;;7.40;5.00;;;;;;;27.41;58.37;100872.62;107867;1286;21990;-68
2023/09/24 06:36:13;;;;;;;6.80;4.50;;;;;;;27.65;58.19;100873.00;108129;1283;21998;-61
2023/09/24 06:38:39;;;;;;;8.20;4.60;;;;;;;27.81;57.89;100871.06;108122;1288;21990;-59
2023/09/24 06:41:05;;;;;;;9.70;4.50;;;;;;;27.98;57.78;100871.73;108100;1277;21996;-68
2023/09/24 06:43:31;;;;;;;6.60;4.30;;;;;;;28.15;57.54;100870.73;108131;1283;22000;-59
2023/09/24 06:45:57;;;;;;;9.60;4.60;;;;;;;28.35;57.76;100868.82;108131;1288;21991;-67
2023/09/24 06:48:23;;;;;;;9.70;4.30;;;;;;;28.55;57.05;100869.25;108203;1287;22001;-59
2023/09/24 06:50:49;;;;;;;8.00;4.30;;;;;;;28.72;56.57;100871.80;108115;1288;22057;-68
2023/09/24 06:53:15;;;;;;;10.70;4.20;;;;;;;28.89;56.25;100871.91;108117;1286;21992;-59
2023/09/24 06:55:41;;;;;;;11.60;4.60;;;;;;;29.08;55.96;100873.44;108121;1283;21990;-59
2023/09/24 06:58:06;;;;;;;7.80;4.10;;;;;;;29.27;55.80;100868.59;108114;1287;21995;-59
2023/09/24 07:00:32;;;;;;;6.40;4.00;;;;;;;29.48;55.55;100867.60;108132;1283;21991;-62
2023/09/24 07:02:58;;;;;;;7.00;4.30;;;;;;;29.70;55.28;100868.11;108086;1277;21991;-68
2023/09/24 07:05:23;;;;;;;13.80;4.50;;;;;;;29.91;54.84;100869.91;108122;1287;21992;-59
2023/09/24 07:07:49;;;;;;;6.50;4.60;;;;;;;30.14;54.39;100869.95;108130;1288;21978;-59
2023/09/24 07:10:15;;;;;;;7.20;4.40;;;;;;;30.37;53.94;100873.77;108180;1277;21989;-59
2023/09/24 07:12:42;;;;;;;6.50;3.70;;;;;;;30.58;53.49;100867.90;108108;1287;23140;-68
2023/09/24 07:15:09;;;;;;;10.80;4.00;;;;;;;30.80;53.00;100868.31;108158;1286;22056;-68
2023/09/24 07:17:35;;;;;;;6.80;4.30;;;;;;;31.00;52.63;100868.33;107899;1283;22002;-69
2023/09/24 07:20:04;;;;;;;9.20;3.70;;;;;;;31.21;52.12;100865.91;108105;1286;21990;-59
2023/09/24 07:22:30;;;;;;;8.70;4.10;;;;;;;31.40;51.40;100863.77;108176;1277;21990;-58
2023/09/24 07:24:56;;;;;;;9.40;3.40;;;;;;;31.56;50.83;100860.67;108123;1288;21990;-58
2023/09/24 07:27:22;;;;;;;5.80;3.60;;;;;;;31.76;50.58;100857.56;108066;1283;22010;-58
2023/09/24 07:29:48;;;;;;;8.20;4.10;;;;;;;31.96;50.18;100852.96;108115;1286;21993;-58
2023/09/24 07:32:14;;;;;;;7.00;3.50;;;;;;;32.15;49.75;100849.88;108112;1281;21985;-58
2023/09/24 07:34:40;;;;;;;8.20;3.60;;;;;;;32.32;49.24;100850.77;108103;1288;21989;-67
2023/09/24 07:37:08;;;;;;;9.60;3.20;;;;;;;32.50;48.75;100851.75;108155;1283;21990;-66
2023/09/24 07:39:36;;;;;;;8.90;3.10;;;;;;;32.68;48.38;100851.86;108119;1280;21990;-57
2023/09/24 07:42:01;;;;;;;6.90;3.50;;;;;;;32.84;47.94;100853.86;108092;1283;21987;-68
2023/09/24 07:44:27;;;;;;;9.50;3.70;;;;;;;33.02;47.69;100854.87;108134;1287;21999;-59
2023/09/24 07:46:53;;;;;;;5.80;3.50;;;;;;;33.19;47.19;100856.95;108143;1280;21992;-66
2023/09/24 07:49:19;;;;;;;9.20;3.10;;;;;;;33.39;46.76;100861.71;108151;1287;22035;-67
2023/09/24 07:51:45;;;;;;;6.00;2.90;;;;;;;33.56;46.45;100857.77;108117;1287;22029;-60
2023/09/24 07:54:11;;;;;;;10.40;3.40;;;;;;;33.72;46.10;100858.55;108142;1287;21996;-67
2023/09/24 07:56:42;;;;;;;7.30;2.90;;;;;;;33.86;45.70;100858.34;108108;1287;21994;-67
2023/09/24 07:59:11;;;;;;;5.40;2.60;;;;;;;34.01;45.13;100849.37;108132;1288;22032;-58
2023/09/24 08:01:36;;;;;;;6.60;2.80;;;;;;;34.15;44.59;100850.41;108102;1288;22002;-58
2023/09/24 08:04:03;;;;;;;8.60;2.90;;;;;;;34.30;44.16;100856.15;108070;1283;22783;-58
2023/09/24 08:06:29;;;;;;;7.20;2.60;;;;;;;34.44;43.93;100860.39;108091;1288;21986;-58
2023/09/24 08:08:55;;;;;;;6.40;2.80;;;;;;;34.58;43.56;100862.66;108141;1288;22030;-58
2023/09/24 08:11:22;;;;;;;4.90;2.70;;;;;;;34.75;43.47;100861.61;108135;1280;21998;-67
2023/09/24 08:13:48;;;;;;;7.40;3.00;;;;;;;34.90;43.04;100859.49;108179;1282;22000;-67
2023/09/24 08:16:14;;;;;;;4.50;2.90;;;;;;;35.06;42.59;100857.71;108136;1280;21984;-67
2023/09/24 08:18:40;;;;;;;7.60;2.90;;;;;;;35.23;42.49;100852.30;108131;1283;21997;-67
2023/09/24 08:21:06;;;;;;;9.20;3.20;;;;;;;35.37;42.16;100857.08;108154;1288;21986;-68
2023/09/24 08:23:32;;;;;;;9.40;3.30;;;;;;;35.51;41.71;100859.48;108132;1277;23062;-62
2023/09/24 08:25:59;;;;;;;5.50;2.90;;;;;;;35.66;41.51;100860.36;107842;1283;21995;-59
2023/09/24 08:28:25;;;;;;;6.70;2.70;;;;;;;35.79;41.23;100857.92;108129;1279;21996;-68
2023/09/24 08:30:51;;;;;;;9.40;2.80;;;;;;;35.90;41.09;100852.14;108104;1288;21993;-68
2023/09/24 08:33:16;;;;;;;6.30;3.10;;;;;;;36.02;40.73;100847.49;108169;1277;21993;-67
2023/09/24 08:35:43;;;;;;;7.20;3.40;;;;;;;36.08;40.20;100843.18;108116;1280;22001;-59
2023/09/24 08:38:09;;;;;;;8.00;3.10;;;;;;;36.17;40.04;100839.98;108116;1287;22047;-58
2023/09/24 08:40:35;;;;;;;6.40;3.20;;;;;;;36.30;40.03;100843.27;108137;1283;21996;-68
2023/09/24 08:43:04;;;;;;;7.20;2.80;;;;;;;36.47;39.79;100844.58;108098;1283;22467;-68
2023/09/24 08:45:31;;;;;;;8.10;3.10;;;;;;;36.68;39.67;100844.22;108092;1286;21990;-67
2023/09/24 08:47:58;;;;;;;13.10;4.30;;;;;;;36.80;38.58;100838.29;107860;1283;22072;-58
2023/09/24 08:50:24;;;;;;;8.30;3.30;;;;;;;36.68;38.42;100838.69;107722;1288;21986;-58
2023/09/24 08:52:50;;;;;;;6.20;3.30;;;;;;;36.70;38.58;100839.03;107833;1279;21995;-59
2023/09/24 08:55:15;;;;;;;5.20;2.90;;;;;;;36.86;38.57;100839.55;107714;1288;22066;-67
2023/09/24 08:57:44;;;;;;;7.00;2.70;;;;;;;37.06;38.24;100835.40;108111;1283;22032;-59
2023/09/24 09:00:11;;;;;;;5.70;2.70;;;;;;;37.21;38.01;100828.48;108119;1283;21990;-68
2023/09/24 09:02:39;;;;;;;7.10;3.10;;;;;;;37.36;37.83;100825.83;108126;1277;21990;-68
2023/09/24 09:05:07;;;;;;;5.30;3.20;;;;;;;37.51;37.78;100821.46;108195;1283;22049;-67
2023/09/24 09:07:34;;;;;;;6.20;2.90;;;;;;;37.70;37.50;100821.02;108089;1283;22007;-58
2023/09/24 09:10:02;;;;;;;9.50;3.40;;;;;;;37.85;37.05;100818.81;108104;1288;21996;-68
2023/09/24 09:12:28;;;;;;;6.20;2.80;;;;;;;38.00;36.82;100818.67;108053;1288;21997;-67
2023/09/24 09:14:55;;;;;;;11.20;3.20;;;;;;;38.14;36.30;100819.96;108066;1279;21990;-59
2023/09/24 09:17:21;;;;;;;7.50;2.40;;;;;;;38.16;36.01;100820.46;108092;1279;21996;-66
2023/09/24 09:19:55;;;;;;;10.90;3.80;;;;;;;38.13;35.74;100821.86;108046;1288;22465;-67
2023/09/24 09:22:27;;;;;;;6.70;3.00;;;;;;;38.11;35.72;100820.81;108112;1283;21979;-67
2023/09/24 09:25:06;;;;;;;3.80;2.60;;;;;;;38.20;35.67;100821.80;108107;1283;21999;-59
2023/09/24 09:27:37;;;;;;;7.70;2.40;;;;;;;38.38;35.44;100816.05;108146;1279;22460;-67
2023/09/24 09:30:15;;;;;;;7.70;2.60;;;;;;;38.57;35.64;100812.69;108039;1280;22004;-58
2023/09/24 09:32:44;;;;;;;6.10;2.50;;;;;;;38.72;35.23;100812.10;108222;1288;21987;-59
2023/09/24 09:35:11;;;;;;;8.50;2.80;;;;;;;38.87;34.83;100818.75;108183;1283;21996;-66
2023/09/24 09:37:40;;;;;;;10.00;2.40;;;;;;;39.02;34.45;100818.02;108150;1283;21996;-59
2023/09/24 09:40:06;;;;;;;6.40;2.70;;;;;;;39.13;34.17;100817.86;108118;1282;22033;-67
2023/09/24 09:42:33;;;;;;;6.90;3.00;;;;;;;39.14;33.87;100818.25;108156;1286;22050;-66
2023/09/24 09:45:07;;;;;;;6.70;2.60;;;;;;;39.12;33.91;100817.77;108162;1283;22003;-65
2023/09/24 09:47:38;;;;;;;10.70;3.10;;;;;;;39.13;33.18;100818.25;108114;1287;21996;-58
2023/09/24 09:50:04;;;;;;;5.10;3.00;;;;;;;38.99;33.22;100816.52;108121;1280;21988;-66
2023/09/24 09:52:36;;;;;;;7.70;2.70;;;;;;;39.02;33.38;100819.38;108130;1288;21997;-67
2023/09/24 09:55:06;;;;;;;5.10;2.90;;;;;;;39.19;32.95;100818.21;108126;1288;23615;-66
2023/09/24 09:57:32;;;;;;;;;;;;;;;39.35;32.59;100816.55;108125;1287;21977;-59
2023/09/24 09:59:59;;;;;;;10.30;3.30;;;;;;;39.32;32.68;100817.88;108137;1286;22179;-62
2023/09/24 10:02:27;;;;;;;7.40;2.90;;;;;;;39.35;32.55;100814.10;108183;1287;21993;-60
2023/09/24 10:04:52;;;;;;;10.50;3.00;;;;;;;39.48;32.50;100818.15;107850;1288;21995;-66
2023/09/24 10:07:18;;;;;;;9.10;2.60;;;;;;;39.67;32.37;100813.20;107831;1282;22574;-66
2023/09/24 10:09:43;;;;;;;5.20;2.70;;;;;;;39.86;32.41;100815.09;107972;1286;22029;-61
2023/09/24 10:12:09;;;;;;;3.50;2.30;;;;;;;40.03;31.96;100813.27;108117;1280;22025;-59
2023/09/24 10:14:36;;;;;;;7.80;3.00;;;;;;;40.13;31.56;100813.62;107810;1288;21995;-59
2023/09/24 10:17:25;;;;;;;7.50;3.40;;;;;;;40.03;31.40;100818.79;107920;1288;22053;-60
2023/09/24 10:19:54;;;;;;;13.80;3.20;;;;;;;39.91;31.03;100812.78;108076;1283;23622;-60
2023/09/24 10:22:40;;;;;;;8.10;3.00;;;;;;;39.71;30.81;100815.64;107970;1288;22844;-65
2023/09/24 10:25:31;;;;;;;5.80;2.80;;;;;;;39.50;30.74;100807.27;108108;1288;22066;-59
2023/09/24 10:28:03;;;;;;;4.90;2.70;;;;;;;39.53;30.46;100803.91;108077;1283;23682;-66
2023/09/24 10:30:55;;;;;;;5.30;2.60;;;;;;;39.78;30.96;100807.17;108069;1287;22367;-60
2023/09/24 10:33:52;;;;;;;8.10;2.80;;;;;;;40.08;30.66;100806.42;107871;1288;22003;-59
2023/09/24 10:36:29;;;;;;;12.70;2.90;;;;;;;40.36;30.42;100804.79;108098;1288;21996;-66
2023/09/24 10:39:08;;;;;;;5.00;2.60;;;;;;;40.56;30.11;100800.02;107780;1288;22056;-66
2023/09/24 10:41:35;;;;;;;5.60;2.90;;;;;;;40.71;30.03;100788.45;108088;1287;21995;-59
2023/09/24 10:44:22;;;;;;;6.30;3.00;;;;;;;40.80;29.66;100786.02;108146;1287;22010;-59
2023/09/24 10:46:47;;;;;;;9.50;2.90;;;;;;;40.89;29.47;100789.67;108137;1280;21993;-66
2023/09/24 10:49:19;;;;;;;10.80;2.90;;;;;;;40.98;29.51;100791.61;108088;1288;21993;-59
2023/09/24 10:51:45;;;;;;;7.60;2.50;;;;;;;41.07;29.29;100795.38;108080;1283;21993;-59
2023/09/24 10:54:20;;;;;;;10.80;3.00;;;;;;;41.05;28.88;100787.52;108065;1283;22053;-66
2023/09/24 10:56:49;;;;;;;12.20;2.90;;;;;;;41.05;28.80;100784.59;108098;1286;22041;-65
2023/09/24 10:59:15;;;;;;;5.20;2.80;;;;;;;41.10;28.43;100781.00;108098;1283;21990;-66
2023/09/24 11:01:42;;;;;;;7.90;2.60;;;;;;;41.02;28.54;100783.87;108134;1279;21996;-66
2023/09/24 11:04:11;;;;;;;7.50;2.30;;;;;;;41.04;28.64;100787.19;108111;1287;21999;-65
2023/09/24 11:06:36;;;;;;;8.40;2.20;;;;;;;41.14;28.66;100782.66;108084;1288;23718;-66
2023/09/24 11:09:18;;;;;;;4.70;2.30;;;;;;;41.24;28.56;100786.73;108075;1280;22188;-67
2023/09/24 11:11:44;;;;;;;5.80;2.10;;;;;;;41.32;28.12;100785.55;108174;1288;22094;-65
2023/09/24 11:14:22;;;;;;;4.40;2.20;;;;;;;41.36;27.49;100783.67;108089;1279;21990;-60